createdAt,value
2022-10-15T00:01:22.660Z,56.20
2022-10-15T00:03:49.799Z,55.42
2022-10-15T00:06:19.723Z,56.03
2022-10-15T00:08:47.570Z,55.05
2022-10-15T00:11:22.528Z,54.83
2022-10-15T00:13:50.518Z,27.48
2022-10-15T00:16:21.756Z,56.63
2022-10-15T00:18:49.634Z,55.72
2022-10-15T00:21:18.785Z,53.63
2022-10-15T00:23:46.963Z,55.28
2022-10-15T00:26:20.703Z,56.28
2022-10-15T00:28:50.124Z,55.70
2022-10-15T00:31:23.214Z,56.95
2022-10-15T00:33:51.685Z,55.88
2022-10-15T00:36:21.709Z,56.80
2022-10-15T00:38:50.194Z,54.83
2022-10-15T00:41:23.876Z,58.30
2022-10-15T00:43:56.294Z,56.55
2022-10-15T00:46:37.728Z,59.13
2022-10-15T00:49:28.380Z,57.03
2022-10-15T00:52:00.806Z,57.65
2022-10-15T00:54:32.440Z,58.03
2022-10-15T00:57:00.349Z,57.17
2022-10-15T00:59:29.357Z,56.58
2022-10-15T01:01:56.310Z,57.10
2022-10-15T01:04:25.141Z,57.88
2022-10-15T01:06:52.090Z,56.70
2022-10-15T01:09:19.213Z,56.30
2022-10-15T01:11:52.159Z,56.65
2022-10-15T01:14:37.851Z,57.72
2022-10-15T01:17:04.779Z,55.47
2022-10-15T01:19:42.102Z,57.28
2022-10-15T01:22:16.319Z,56.33
2022-10-15T01:25:14.870Z,56.45
2022-10-15T01:28:43.501Z,54.55
2022-10-15T01:31:25.694Z,58.00
2022-10-15T01:34:03.834Z,58.45
2022-10-15T01:37:08.418Z,57.42
2022-10-15T01:39:47.121Z,60.70
2022-10-15T01:42:19.920Z,59.17
2022-10-15T01:44:54.507Z,58.88
2022-10-15T01:47:54.014Z,61.53
2022-10-15T01:50:25.231Z,31.80
2022-10-15T01:52:55.365Z,59.15
2022-10-15T01:55:25.148Z,58.72
2022-10-15T01:57:56.306Z,59.33
2022-10-15T02:00:25.332Z,58.72
2022-10-15T02:02:52.344Z,58.03
2022-10-15T02:05:29.618Z,59.20
2022-10-15T02:08:22.132Z,57.15
2022-10-15T02:11:13.965Z,56.90
2022-10-15T02:14:11.791Z,56.25
2022-10-15T02:16:45.612Z,57.78
2022-10-15T02:19:49.568Z,56.60
2022-10-15T02:22:27.201Z,58.13
2022-10-15T02:24:58.704Z,56.38
2022-10-15T02:27:28.063Z,58.15
2022-10-15T02:29:56.329Z,57.80
2022-10-15T02:32:24.812Z,57.38
2022-10-15T02:34:53.557Z,55.85
2022-10-15T02:37:23.173Z,55.13
2022-10-15T02:39:50.441Z,56.92
2022-10-15T02:42:18.577Z,59.40
2022-10-15T02:44:48.537Z,55.70
2022-10-15T02:47:15.815Z,55.35
2022-10-15T02:49:43.699Z,56.60
2022-10-15T02:52:11.263Z,54.00
2022-10-15T02:54:38.380Z,56.15
2022-10-15T02:57:05.365Z,53.15
2022-10-15T02:59:32.891Z,55.33
2022-10-15T03:01:59.950Z,56.92
2022-10-15T03:04:27.874Z,52.45
2022-10-15T03:06:55.129Z,53.88
2022-10-15T03:09:23.310Z,52.92
2022-10-15T03:11:50.283Z,53.70
2022-10-15T03:14:17.811Z,52.63
2022-10-15T03:16:44.960Z,55.22
2022-10-15T03:19:12.231Z,53.03
2022-10-15T03:21:40.274Z,52.97
2022-10-15T03:24:11.899Z,53.75
2022-10-15T03:26:39.627Z,55.35
2022-10-15T03:29:06.658Z,54.20
2022-10-15T03:31:43.196Z,54.58
2022-10-15T03:34:10.615Z,53.88
2022-10-15T03:36:37.607Z,53.95
2022-10-15T03:39:08.601Z,54.97
2022-10-15T03:41:39.310Z,53.55
2022-10-15T03:44:08.175Z,53.72
2022-10-15T03:46:40.740Z,54.72
2022-10-15T03:49:07.811Z,55.53
2022-10-15T03:51:36.460Z,55.30
2022-10-15T03:54:08.983Z,53.30
2022-10-15T03:56:43.760Z,23.87
2022-10-15T03:59:25.236Z,52.90
2022-10-15T04:01:58.718Z,53.33
2022-10-15T04:04:26.293Z,55.63
2022-10-15T04:06:53.538Z,52.30
2022-10-15T04:09:20.616Z,28.63
2022-10-15T04:11:48.429Z,52.72
2022-10-15T04:14:15.391Z,54.65
2022-10-15T04:16:43.675Z,52.95
2022-10-15T04:19:18.947Z,55.50
2022-10-15T04:21:55.591Z,53.47
2022-10-15T04:24:38.272Z,53.47
2022-10-15T04:27:05.411Z,54.60
2022-10-15T04:29:32.506Z,55.60
2022-10-15T04:32:17.003Z,54.25
2022-10-15T04:34:46.668Z,56.85
2022-10-15T04:37:15.081Z,53.72
2022-10-15T04:39:42.264Z,53.53
2022-10-15T04:42:12.742Z,53.47
2022-10-15T04:44:40.594Z,24.38
2022-10-15T04:47:07.644Z,56.22
2022-10-15T04:49:43.044Z,27.40
2022-10-15T04:52:49.895Z,53.30
2022-10-15T04:55:18.723Z,53.67
2022-10-15T04:57:45.754Z,52.88
2022-10-15T05:00:13.487Z,53.53
2022-10-15T05:03:00.433Z,53.60
2022-10-15T05:05:43.252Z,53.05
2022-10-15T05:08:10.452Z,55.22
2022-10-15T05:11:05.520Z,53.10
2022-10-15T05:13:34.102Z,53.78
2022-10-15T05:16:16.984Z,52.85
2022-10-15T05:18:45.994Z,52.10
2022-10-15T05:21:13.921Z,52.90
2022-10-15T05:23:42.233Z,51.80
2022-10-15T05:26:38.443Z,51.70
2022-10-15T05:29:05.579Z,53.95
2022-10-15T05:31:33.798Z,50.83
2022-10-15T05:34:21.154Z,51.03
2022-10-15T05:39:23.940Z,50.78
2022-10-15T05:41:51.409Z,50.67
2022-10-15T05:44:23.259Z,51.05
2022-10-15T05:46:50.208Z,53.20
2022-10-15T05:49:22.507Z,51.38
2022-10-15T05:51:57.919Z,55.50
2022-10-15T05:55:01.424Z,51.08
2022-10-15T05:57:28.437Z,52.70
2022-10-15T05:59:55.834Z,53.55
2022-10-15T06:02:23.143Z,53.95
2022-10-15T06:04:51.698Z,54.05
2022-10-15T06:07:18.855Z,55.42
2022-10-15T06:09:45.792Z,53.53
2022-10-15T06:12:14.229Z,51.88
2022-10-15T06:14:41.196Z,55.03
2022-10-15T06:17:08.256Z,53.05
2022-10-15T06:19:53.875Z,53.60
2022-10-15T06:22:20.844Z,55.60
2022-10-15T06:24:47.797Z,53.70
2022-10-15T06:27:17.773Z,51.75
2022-10-15T06:29:44.721Z,54.28
2022-10-15T06:32:12.077Z,55.67
2022-10-15T06:34:43.859Z,54.05
2022-10-15T06:37:10.939Z,54.22
2022-10-15T06:39:38.058Z,54.47
2022-10-15T06:42:05.021Z,53.30
2022-10-15T06:44:39.636Z,54.00
2022-10-15T06:47:06.801Z,54.80
2022-10-15T06:49:33.860Z,54.28
2022-10-15T06:52:03.595Z,54.97
2022-10-15T06:54:33.450Z,55.20
2022-10-15T06:57:00.447Z,52.28
2022-10-15T06:59:27.483Z,53.65
2022-10-15T07:01:58.117Z,53.92
2022-10-15T07:04:25.144Z,52.63
2022-10-15T07:06:52.236Z,54.40
2022-10-15T07:09:20.588Z,52.38
2022-10-15T07:11:47.764Z,50.28
2022-10-15T07:14:14.758Z,52.85
2022-10-15T07:16:41.754Z,53.08
2022-10-15T07:19:08.695Z,52.70
2022-10-15T07:21:36.034Z,52.90
2022-10-15T07:24:03.151Z,52.17
2022-10-15T07:26:31.740Z,53.38
2022-10-15T07:29:02.768Z,52.38
2022-10-15T07:31:30.249Z,53.08
2022-10-15T07:33:57.242Z,56.78
2022-10-15T07:36:26.407Z,55.42
2022-10-15T07:38:53.353Z,56.53
2022-10-15T07:41:20.300Z,55.80
2022-10-15T07:43:47.316Z,56.28
2022-10-15T07:46:14.326Z,52.42
2022-10-15T07:48:41.344Z,55.90
2022-10-15T07:51:08.479Z,52.72
2022-10-15T07:53:35.625Z,55.92
2022-10-15T07:56:06.833Z,55.97
2022-10-15T07:58:38.300Z,57.88
2022-10-15T08:01:07.217Z,58.90
2022-10-15T08:03:34.725Z,57.22
2022-10-15T08:06:06.966Z,57.80
2022-10-15T08:08:35.062Z,55.25
2022-10-15T08:11:20.365Z,57.25
2022-10-15T08:13:48.863Z,27.88
2022-10-15T08:16:17.284Z,58.05
2022-10-15T08:21:24.440Z,56.25
2022-10-15T08:23:54.139Z,60.60
2022-10-15T08:26:30.131Z,64.43
2022-10-15T08:28:57.156Z,64.43
2022-10-15T08:31:24.191Z,62.80
2022-10-15T08:33:54.165Z,61.55
2022-10-15T08:36:21.206Z,60.60
2022-10-15T08:38:48.447Z,61.45
2022-10-15T08:41:20.384Z,61.38
2022-10-15T08:43:48.437Z,59.92
2022-10-15T08:46:36.902Z,61.65
2022-10-15T08:49:05.027Z,65.25
2022-10-15T08:51:55.267Z,64.60
2022-10-15T08:54:22.459Z,62.60
2022-10-15T08:57:04.432Z,62.78
2022-10-15T08:59:41.899Z,65.93
2022-10-15T09:02:13.715Z,65.45
2022-10-15T09:04:55.739Z,68.30
2022-10-15T09:07:42.860Z,65.72
2022-10-15T09:10:18.493Z,69.97
2022-10-15T09:12:45.532Z,70.65
2022-10-15T09:15:21.582Z,70.93
2022-10-15T09:17:54.115Z,68.50
2022-10-15T09:20:31.881Z,70.97
2022-10-15T09:22:59.054Z,97.70
2022-10-15T09:25:34.970Z,85.60
2022-10-15T09:28:10.771Z,78.22
2022-10-15T09:30:44.198Z,74.88
2022-10-15T09:33:21.904Z,74.13
2022-10-15T09:35:59.537Z,75.07
2022-10-15T09:38:40.799Z,74.75
2022-10-15T09:41:53.702Z,71.60
2022-10-15T09:44:24.569Z,69.82
2022-10-15T09:47:37.135Z,71.28
2022-10-15T09:50:06.881Z,69.35
2022-10-15T09:52:49.132Z,70.95
2022-10-15T09:55:31.037Z,74.40
2022-10-15T09:58:09.375Z,72.53
2022-10-15T10:00:53.130Z,74.15
2022-10-15T10:03:22.862Z,74.47
2022-10-15T10:05:50.624Z,75.53
2022-10-15T10:08:24.215Z,76.53
2022-10-15T10:10:56.189Z,75.07
2022-10-15T10:13:32.391Z,73.60
2022-10-15T10:16:09.883Z,73.57
2022-10-15T10:18:40.282Z,76.18
2022-10-15T10:21:23.295Z,71.25
2022-10-15T10:23:50.291Z,76.95
2022-10-15T10:26:17.466Z,73.45
2022-10-15T10:28:56.557Z,74.25
2022-10-15T10:31:30.884Z,74.80
2022-10-15T10:34:01.628Z,74.72
2022-10-15T10:36:33.832Z,77.15
2022-10-15T10:39:02.672Z,76.13
2022-10-15T10:41:57.175Z,79.05
2022-10-15T10:44:33.112Z,78.13
2022-10-15T10:47:10.847Z,75.72
2022-10-15T10:49:44.669Z,82.72
2022-10-15T10:52:23.719Z,73.18
2022-10-15T10:55:18.457Z,76.40
2022-10-15T10:57:49.773Z,71.00
2022-10-15T11:00:42.985Z,62.60
2022-10-15T11:03:36.423Z,68.82
2022-10-15T11:06:31.781Z,66.30
2022-10-15T11:09:17.792Z,68.32
2022-10-15T11:11:47.834Z,70.40
2022-10-15T11:14:45.433Z,67.70
2022-10-15T11:17:46.768Z,70.05
2022-10-15T11:20:30.529Z,62.35
2022-10-15T11:23:26.607Z,53.85
2022-10-15T11:26:20.503Z,56.80
2022-10-15T11:29:06.346Z,55.35
2022-10-15T11:31:55.383Z,54.85
2022-10-15T11:34:39.759Z,55.50
2022-10-15T11:37:19.011Z,58.40
2022-10-15T11:39:57.706Z,59.47
2022-10-15T11:42:40.524Z,54.70
2022-10-15T11:45:16.321Z,57.13
2022-10-15T11:47:52.228Z,47.00
2022-10-15T11:50:34.993Z,42.85
2022-10-15T11:53:21.942Z,42.50
2022-10-15T11:56:09.172Z,42.17
2022-10-15T11:58:42.975Z,45.22
2022-10-15T12:01:19.935Z,50.10
2022-10-15T12:03:59.515Z,50.88
2022-10-15T12:06:30.915Z,48.53
2022-10-15T12:08:58.817Z,44.72
2022-10-15T12:11:38.295Z,42.70
2022-10-15T12:14:27.700Z,47.47
2022-10-15T12:17:12.649Z,44.63
2022-10-15T12:20:07.334Z,43.03
2022-10-15T12:23:01.657Z,42.47
2022-10-15T12:25:34.674Z,40.40
2022-10-15T12:28:21.662Z,41.53
2022-10-15T12:30:55.688Z,38.28
2022-10-15T12:33:38.446Z,38.97
2022-10-15T12:36:27.954Z,38.80
2022-10-15T12:39:12.799Z,34.45
2022-10-15T12:41:49.714Z,34.22
2022-10-15T12:44:29.285Z,36.03
2022-10-15T12:46:57.396Z,35.72
2022-10-15T12:49:27.181Z,33.10
2022-10-15T12:51:56.303Z,32.53
2022-10-15T12:54:39.086Z,36.25
2022-10-15T12:57:31.018Z,36.15
2022-10-15T12:59:59.139Z,37.35
2022-10-15T13:02:39.713Z,37.20
2022-10-15T13:05:09.196Z,36.08
2022-10-15T13:07:41.003Z,37.78
2022-10-15T13:10:21.935Z,41.42
2022-10-15T13:12:55.259Z,38.33
2022-10-15T13:15:25.561Z,36.13
2022-10-15T13:17:55.297Z,40.90
2022-10-15T13:20:31.698Z,36.03
2022-10-15T13:23:18.697Z,33.72
2022-10-15T13:26:18.151Z,35.25
2022-10-15T13:28:46.370Z,34.35
2022-10-15T13:31:15.804Z,34.20
2022-10-15T13:33:46.132Z,35.88
2022-10-15T13:36:25.996Z,35.17
2022-10-15T13:38:56.592Z,36.30
2022-10-15T13:41:30.140Z,33.13
2022-10-15T13:46:30.690Z,33.03
2022-10-15T13:49:00.518Z,36.25
2022-10-15T13:51:33.425Z,32.45
2022-10-15T13:54:02.257Z,30.35
2022-10-15T13:56:33.252Z,28.75
2022-10-15T13:59:02.050Z,31.23
2022-10-15T14:01:34.385Z,29.00
2022-10-15T14:04:03.207Z,30.33
2022-10-15T14:06:32.424Z,30.83
2022-10-15T14:09:26.813Z,29.83
2022-10-15T14:11:57.942Z,27.38
2022-10-15T14:14:36.419Z,27.60
2022-10-15T14:17:13.118Z,26.73
2022-10-15T14:19:40.671Z,26.05
2022-10-15T14:22:07.800Z,25.85
2022-10-15T14:24:37.284Z,28.00
2022-10-15T14:27:20.091Z,24.35
2022-10-15T14:29:52.507Z,25.90
2022-10-15T14:32:44.232Z,25.23
2022-10-15T14:35:34.320Z,26.92
2022-10-15T14:38:08.517Z,27.48
2022-10-15T14:40:35.527Z,25.65
2022-10-15T14:43:08.631Z,25.65
2022-10-15T14:45:58.716Z,27.42
2022-10-15T14:48:37.244Z,27.67
2022-10-15T14:51:12.515Z,27.38
2022-10-15T14:53:45.750Z,25.83
2022-10-15T14:56:25.485Z,27.30
2022-10-15T14:58:56.762Z,27.33
2022-10-15T15:01:24.503Z,26.02
2022-10-15T15:03:54.528Z,26.90
2022-10-15T15:06:21.616Z,28.50
2022-10-15T15:08:48.960Z,25.80
2022-10-15T15:11:23.975Z,27.63
2022-10-15T15:13:51.607Z,25.23
2022-10-15T15:16:19.661Z,26.88
2022-10-15T15:18:48.634Z,24.50
2022-10-15T15:21:22.241Z,22.80
2022-10-15T15:23:49.680Z,24.15
2022-10-15T15:26:16.824Z,24.98
2022-10-15T15:28:44.023Z,24.52
2022-10-15T15:31:17.497Z,24.73
2022-10-15T15:33:44.759Z,25.52
2022-10-15T15:36:19.189Z,25.13
2022-10-15T15:38:50.479Z,24.92
2022-10-15T15:41:22.650Z,24.70
2022-10-15T15:43:50.432Z,23.25
2022-10-15T15:46:17.751Z,21.45
2022-10-15T15:48:44.740Z,21.08
2022-10-15T15:51:11.703Z,21.02
2022-10-15T15:53:38.655Z,21.65
2022-10-15T15:56:06.449Z,21.67
2022-10-15T15:58:33.375Z,22.13
2022-10-15T16:01:00.338Z,22.23
2022-10-15T16:03:27.390Z,22.83
2022-10-15T16:05:54.425Z,22.80
2022-10-15T16:08:21.630Z,21.85
2022-10-15T16:10:48.593Z,22.15
2022-10-15T16:13:15.808Z,21.42
2022-10-15T16:15:42.746Z,23.00
2022-10-15T16:18:10.733Z,22.92
2022-10-15T16:20:39.630Z,23.38
2022-10-15T16:23:06.775Z,23.23
2022-10-15T16:25:33.782Z,26.15
2022-10-15T16:28:01.918Z,25.08
2022-10-15T16:30:29.195Z,24.90
2022-10-15T16:32:58.770Z,24.15
2022-10-15T16:35:25.856Z,26.08
2022-10-15T16:37:55.975Z,23.48
2022-10-15T16:40:24.542Z,26.55
2022-10-15T16:42:54.031Z,25.20
2022-10-15T16:45:21.320Z,25.63
2022-10-15T16:47:49.248Z,25.40
2022-10-15T16:50:16.496Z,24.88
2022-10-15T16:52:43.480Z,24.45
2022-10-15T16:55:10.665Z,23.13
2022-10-15T16:57:37.798Z,27.92
2022-10-15T17:00:05.295Z,26.80
2022-10-15T17:02:34.063Z,27.88
2022-10-15T17:05:01.067Z,25.13
2022-10-15T17:07:28.287Z,24.27
2022-10-15T17:09:55.692Z,24.02
2022-10-15T17:12:23.638Z,25.40
2022-10-15T17:14:51.689Z,27.88
2022-10-15T17:17:19.120Z,28.77
2022-10-15T17:19:46.005Z,26.52
2022-10-15T17:22:12.980Z,29.88
2022-10-15T17:24:40.088Z,28.88
2022-10-15T17:27:07.011Z,31.00
2022-10-15T17:29:34.126Z,33.92
2022-10-15T17:32:02.844Z,35.95
2022-10-15T17:34:29.839Z,39.17
2022-10-15T17:36:57.049Z,35.88
2022-10-15T17:39:24.533Z,35.67
2022-10-15T17:41:52.062Z,35.47
2022-10-15T17:44:19.655Z,33.17
2022-10-15T17:46:50.425Z,34.20
2022-10-15T17:49:20.446Z,35.13
2022-10-15T17:51:47.785Z,37.78
2022-10-15T17:54:14.967Z,35.60
2022-10-15T17:56:43.023Z,35.72
2022-10-15T17:59:12.443Z,35.28
2022-10-15T18:01:58.836Z,33.47
2022-10-15T18:04:28.661Z,32.08
2022-10-15T18:06:55.843Z,32.05
2022-10-15T18:09:26.740Z,33.92
2022-10-15T18:11:56.412Z,32.60
2022-10-15T18:14:28.744Z,29.05
2022-10-15T18:16:56.089Z,31.10
2022-10-15T18:19:26.780Z,32.33
2022-10-15T18:21:54.494Z,28.55
2022-10-15T18:24:23.294Z,24.73
2022-10-15T18:26:51.081Z,34.10
2022-10-15T18:29:18.819Z,33.70
2022-10-15T18:31:46.912Z,24.58
2022-10-15T18:34:16.610Z,24.85
2022-10-15T18:36:43.904Z,27.55
2022-10-15T18:39:11.220Z,29.92
2022-10-15T18:41:39.960Z,27.00
2022-10-15T18:44:17.953Z,27.13
2022-10-15T18:46:45.597Z,26.80
2022-10-15T18:49:14.915Z,28.15
2022-10-15T18:51:42.022Z,25.73
2022-10-15T18:54:11.059Z,24.92
2022-10-15T18:56:38.633Z,25.13
2022-10-15T18:59:05.607Z,25.77
2022-10-15T19:01:34.371Z,25.70
2022-10-15T19:04:07.113Z,27.15
2022-10-15T19:06:40.078Z,26.85
2022-10-15T19:09:10.523Z,27.88
2022-10-15T19:11:38.979Z,28.65
2022-10-15T19:14:06.123Z,27.35
2022-10-15T19:16:33.650Z,28.00
2022-10-15T19:19:07.395Z,28.55
2022-10-15T19:21:35.712Z,29.83
2022-10-15T19:24:02.840Z,31.58
2022-10-15T19:26:29.882Z,29.75
2022-10-15T19:28:57.525Z,31.20
2022-10-15T19:31:30.245Z,31.02
2022-10-15T19:33:58.141Z,30.80
2022-10-15T19:36:27.950Z,31.65
2022-10-15T19:38:55.762Z,32.55
2022-10-15T19:41:23.372Z,33.83
2022-10-15T19:43:51.973Z,37.35
2022-10-15T19:46:21.288Z,37.05
2022-10-15T19:48:48.902Z,35.97
2022-10-15T19:51:19.170Z,33.42
2022-10-15T19:53:46.109Z,31.60
2022-10-15T19:56:13.088Z,31.65
2022-10-15T19:58:40.352Z,32.25
2022-10-15T20:01:07.414Z,32.20
2022-10-15T20:06:07.995Z,31.40
2022-10-15T20:08:35.468Z,33.40
2022-10-15T20:11:08.490Z,33.90
2022-10-15T20:13:36.202Z,33.03
2022-10-15T20:16:06.407Z,32.92
2022-10-15T20:18:34.445Z,33.47
2022-10-15T20:21:06.224Z,33.30
2022-10-15T20:23:33.204Z,33.25
2022-10-15T20:26:07.149Z,34.60
2022-10-15T20:28:38.311Z,33.60
2022-10-15T20:31:10.054Z,34.22
2022-10-15T20:33:37.985Z,34.70
2022-10-15T20:36:10.654Z,37.08
2022-10-15T20:38:40.203Z,38.15
2022-10-15T20:41:13.006Z,36.75
2022-10-15T20:43:40.404Z,37.05
2022-10-15T20:46:13.765Z,35.53
2022-10-15T20:48:41.767Z,35.67
2022-10-15T20:51:10.744Z,46.45
2022-10-15T20:53:38.305Z,41.05
2022-10-15T20:56:05.750Z,37.38
2022-10-15T20:58:33.006Z,36.00
2022-10-15T21:01:00.206Z,37.65
2022-10-15T21:03:27.459Z,37.67
2022-10-15T21:05:54.511Z,38.47
2022-10-15T21:08:23.885Z,38.45
2022-10-15T21:10:50.946Z,40.97
2022-10-15T21:13:17.836Z,43.72
2022-10-15T21:15:44.772Z,43.63
2022-10-15T21:18:11.740Z,43.10
2022-10-15T21:20:38.728Z,41.08
2022-10-15T21:23:05.768Z,44.28
2022-10-15T21:25:34.108Z,44.83
2022-10-15T21:28:01.139Z,43.50
2022-10-15T21:30:28.124Z,43.70
2022-10-15T21:32:55.166Z,43.85
2022-10-15T21:35:22.155Z,47.72
2022-10-15T21:37:49.160Z,47.80
2022-10-15T21:40:16.245Z,48.47
2022-10-15T21:42:43.297Z,48.17
2022-10-15T21:45:11.450Z,50.38
2022-10-15T21:47:38.380Z,51.20
2022-10-15T21:50:05.789Z,50.10
2022-10-15T21:52:32.800Z,51.13
2022-10-15T21:54:59.763Z,52.20
2022-10-15T21:57:27.135Z,52.00
2022-10-15T21:59:54.268Z,53.72
2022-10-15T22:02:21.274Z,52.42
2022-10-15T22:04:48.294Z,53.67
2022-10-15T22:07:15.263Z,54.25
2022-10-15T22:09:42.336Z,55.20
2022-10-15T22:12:09.665Z,54.80
2022-10-15T22:14:36.681Z,55.05
2022-10-15T22:17:03.674Z,54.30
2022-10-15T22:19:33.349Z,56.40
2022-10-15T22:22:00.418Z,53.75
2022-10-15T22:24:27.580Z,55.90
2022-10-15T22:26:54.657Z,53.10
2022-10-15T22:29:31.670Z,52.92
2022-10-15T22:32:03.441Z,52.22
2022-10-15T22:34:31.926Z,53.08
2022-10-15T22:36:58.911Z,53.30
2022-10-15T22:39:25.830Z,51.45
2022-10-15T22:41:52.874Z,53.35
2022-10-15T22:44:21.404Z,52.17
2022-10-15T22:46:49.715Z,53.05
2022-10-15T22:49:22.105Z,52.65
2022-10-15T22:51:50.730Z,52.58
2022-10-15T22:54:22.336Z,54.80
2022-10-15T22:56:51.005Z,52.10
2022-10-15T22:59:18.503Z,53.60
2022-10-15T23:01:45.623Z,52.33
2022-10-15T23:04:14.801Z,53.90
2022-10-15T23:06:44.709Z,52.33
2022-10-15T23:09:19.695Z,52.97
2022-10-15T23:11:46.913Z,56.17
2022-10-15T23:14:15.985Z,54.17
2022-10-15T23:16:48.831Z,52.75
2022-10-15T23:19:19.137Z,53.25
2022-10-15T23:21:51.925Z,53.13
2022-10-15T23:24:21.740Z,52.97
2022-10-15T23:26:49.358Z,52.35
2022-10-15T23:29:19.256Z,52.00
2022-10-15T23:31:49.319Z,51.50
2022-10-15T23:34:18.995Z,50.90
2022-10-15T23:36:46.496Z,51.13
2022-10-15T23:39:16.453Z,51.47
2022-10-15T23:41:43.931Z,52.78
2022-10-15T23:44:11.988Z,52.50
2022-10-15T23:46:38.987Z,51.85
2022-10-15T23:49:05.995Z,53.00
2022-10-15T23:51:36.527Z,51.17
2022-10-15T23:54:09.934Z,53.28
2022-10-15T23:56:36.929Z,53.13
2022-10-15T23:59:04.055Z,50.47
